createdAt,value
2023-02-06T00:00:39.441Z,45.30
2023-02-06T00:01:39.437Z,59.10
2023-02-06T00:02:39.448Z,66.60
2023-02-06T00:03:39.418Z,58.70
2023-02-06T00:04:39.407Z,51.80
2023-02-06T00:05:39.405Z,55.90
2023-02-06T00:06:39.379Z,55.50
2023-02-06T00:07:39.391Z,47.80
2023-02-06T00:08:39.387Z,47.70
2023-02-06T00:09:39.380Z,61.60
2023-02-06T00:10:39.356Z,50.70
2023-02-06T00:11:39.321Z,36.90
2023-02-06T00:12:39.353Z,38.40
2023-02-06T00:13:39.349Z,41.00
2023-02-06T00:14:39.316Z,57.50
2023-02-06T00:15:39.705Z,48.00
2023-02-06T00:16:39.277Z,48.20
2023-02-06T00:17:39.274Z,61.30
2023-02-06T00:18:39.303Z,52.40
2023-02-06T00:19:39.256Z,48.30
2023-02-06T00:20:39.245Z,43.10
2023-02-06T00:21:39.242Z,43.90
2023-02-06T00:22:39.220Z,56.50
2023-02-06T00:23:39.228Z,43.60
2023-02-06T00:24:39.205Z,43.90
2023-02-06T00:25:39.240Z,57.40
2023-02-06T00:26:39.193Z,68.20
2023-02-06T00:27:39.176Z,70.70
2023-02-06T00:28:39.229Z,30.60
2023-02-06T00:29:39.153Z,55.70
2023-02-06T00:30:39.197Z,58.30
2023-02-06T00:31:39.205Z,60.10
2023-02-06T00:32:39.171Z,53.90
2023-02-06T00:33:39.126Z,43.00
2023-02-06T00:34:39.094Z,38.40
2023-02-06T00:35:39.116Z,55.50
2023-02-06T00:36:39.088Z,51.10
2023-02-06T00:37:39.084Z,40.60
2023-02-06T00:38:39.082Z,39.10
2023-02-06T00:39:39.070Z,48.20
2023-02-06T00:40:39.065Z,42.80
2023-02-06T00:41:39.056Z,68.80
2023-02-06T00:42:39.029Z,43.70
2023-02-06T00:43:39.046Z,40.50
2023-02-06T00:44:39.031Z,35.70
2023-02-06T00:45:39.051Z,36.60
2023-02-06T00:46:39.028Z,41.20
2023-02-06T00:47:38.989Z,40.00
2023-02-06T00:48:38.992Z,37.10
2023-02-06T00:49:39.031Z,31.10
2023-02-06T00:50:38.983Z,38.80
2023-02-06T00:51:38.987Z,48.50
2023-02-06T00:52:38.921Z,57.70
2023-02-06T00:53:38.935Z,37.30
2023-02-06T00:54:38.924Z,38.50
2023-02-06T00:55:38.910Z,54.40
2023-02-06T00:56:38.893Z,36.10
2023-02-06T00:57:39.021Z,70.50
2023-02-06T00:58:38.879Z,46.20
2023-02-06T00:59:38.857Z,61.90
2023-02-06T01:00:38.860Z,37.10
2023-02-06T01:01:38.886Z,54.90
2023-02-06T01:02:38.897Z,38.60
2023-02-06T01:03:38.859Z,37.40
2023-02-06T01:04:38.827Z,43.50
2023-02-06T01:05:39.045Z,33.60
2023-02-06T01:06:39.118Z,31.60
2023-02-06T01:07:38.824Z,30.80
2023-02-06T01:08:38.805Z,34.80
2023-02-06T01:09:38.778Z,33.10
2023-02-06T01:10:38.738Z,38.70
2023-02-06T01:11:38.746Z,30.80
2023-02-06T01:12:38.723Z,30.70
2023-02-06T01:13:38.755Z,51.20
2023-02-06T01:14:38.809Z,35.50
2023-02-06T01:15:38.699Z,37.00
2023-02-06T01:16:38.687Z,42.80
2023-02-06T01:17:38.692Z,31.80
2023-02-06T01:18:38.673Z,31.70
2023-02-06T01:19:38.689Z,31.60
2023-02-06T01:20:38.680Z,39.50
2023-02-06T01:21:38.647Z,41.20
2023-02-06T01:22:38.619Z,42.80
2023-02-06T01:23:38.660Z,34.20
2023-02-06T01:24:38.615Z,30.20
2023-02-06T01:25:38.622Z,47.10
2023-02-06T01:26:38.581Z,47.20
2023-02-06T01:27:38.631Z,46.50
2023-02-06T01:28:38.576Z,41.00
2023-02-06T01:29:38.563Z,32.50
2023-02-06T01:30:38.587Z,32.30
2023-02-06T01:31:38.598Z,40.90
2023-02-06T01:32:38.544Z,34.80
2023-02-06T01:33:38.507Z,32.90
2023-02-06T01:34:38.536Z,30.20
2023-02-06T01:35:38.528Z,33.10
2023-02-06T01:36:38.496Z,31.40
2023-02-06T01:37:38.531Z,38.10
2023-02-06T01:38:38.469Z,27.90
2023-02-06T01:39:38.469Z,26.90
2023-02-06T01:40:38.490Z,34.20
2023-02-06T01:41:38.440Z,32.70
2023-02-06T01:42:38.426Z,30.60
2023-02-06T01:43:38.435Z,37.50
2023-02-06T01:44:38.440Z,38.20
2023-02-06T01:45:38.493Z,28.00
2023-02-06T01:46:38.420Z,37.90
2023-02-06T01:47:38.406Z,36.30
2023-02-06T01:48:38.374Z,44.60
2023-02-06T01:49:38.402Z,58.90
2023-02-06T01:50:38.345Z,39.60
2023-02-06T01:51:38.354Z,34.10
2023-02-06T01:52:38.362Z,57.30
2023-02-06T01:53:38.344Z,50.10
2023-02-06T01:54:38.332Z,41.50
2023-02-06T01:55:38.562Z,61.40
2023-02-06T01:56:38.302Z,36.30
2023-02-06T01:57:38.321Z,42.30
2023-02-06T01:58:38.263Z,35.10
2023-02-06T01:59:38.258Z,39.10
2023-02-06T02:00:38.324Z,40.70
2023-02-06T02:01:38.288Z,38.50
2023-02-06T02:02:38.236Z,37.60
2023-02-06T02:03:38.231Z,27.60
2023-02-06T02:04:38.212Z,39.40
2023-02-06T02:05:38.459Z,40.10
2023-02-06T02:06:38.201Z,38.50
2023-02-06T02:07:38.199Z,27.50
2023-02-06T02:08:38.184Z,34.10
2023-02-06T02:09:38.194Z,41.10
2023-02-06T02:10:38.167Z,38.80
2023-02-06T02:11:38.188Z,35.40
2023-02-06T02:12:38.150Z,30.10
2023-02-06T02:13:38.130Z,37.10
2023-02-06T02:14:38.116Z,44.30
2023-02-06T02:15:38.147Z,34.40
2023-02-06T02:16:38.150Z,30.10
2023-02-06T02:17:38.121Z,34.00
2023-02-06T02:18:38.072Z,32.40
2023-02-06T02:19:38.084Z,33.90
2023-02-06T02:20:38.067Z,27.20
2023-02-06T02:21:38.064Z,36.10
2023-02-06T02:22:38.051Z,34.80
2023-02-06T02:23:38.060Z,29.30
2023-02-06T02:24:38.027Z,30.70
2023-02-06T02:25:38.262Z,33.60
2023-02-06T02:26:38.037Z,32.90
2023-02-06T02:27:38.051Z,30.70
2023-02-06T02:28:37.990Z,41.90
2023-02-06T02:29:37.986Z,33.40
2023-02-06T02:30:38.033Z,34.80
2023-02-06T02:31:38.030Z,31.60
2023-02-06T02:32:37.948Z,29.50
2023-02-06T02:33:37.942Z,33.40
2023-02-06T02:34:37.922Z,37.20
2023-02-06T02:35:38.242Z,34.40
2023-02-06T02:36:37.941Z,39.90
2023-02-06T02:37:37.939Z,33.10
2023-02-06T02:38:37.877Z,31.50
2023-02-06T02:39:37.912Z,34.20
2023-02-06T02:40:37.890Z,35.00
2023-02-06T02:41:37.874Z,34.60
2023-02-06T02:42:37.855Z,32.40
2023-02-06T02:43:37.881Z,28.70
2023-02-06T02:44:37.843Z,33.20
2023-02-06T02:45:38.113Z,28.10
2023-02-06T02:46:37.818Z,36.70
2023-02-06T02:47:37.808Z,35.50
2023-02-06T02:48:37.789Z,48.80
2023-02-06T02:49:37.796Z,44.90
2023-02-06T02:50:37.768Z,40.10
2023-02-06T02:51:37.777Z,45.20
2023-02-06T02:52:37.746Z,57.10
2023-02-06T02:53:37.749Z,42.30
2023-02-06T02:54:37.735Z,32.40
2023-02-06T02:55:37.900Z,40.50
2023-02-06T02:56:37.702Z,51.30
2023-02-06T02:57:37.720Z,35.40
2023-02-06T02:58:37.685Z,38.20
2023-02-06T02:59:37.674Z,32.20
2023-02-06T03:00:37.710Z,31.80
2023-02-06T03:01:37.675Z,31.10
2023-02-06T03:02:37.645Z,36.30
2023-02-06T03:03:37.674Z,40.30
2023-02-06T03:04:37.619Z,40.40
2023-02-06T03:05:37.948Z,34.30
2023-02-06T03:06:37.626Z,36.30
2023-02-06T03:07:37.611Z,34.60
2023-02-06T03:08:37.576Z,45.30
2023-02-06T03:09:37.586Z,39.40
2023-02-06T03:10:37.574Z,40.00
2023-02-06T03:11:37.572Z,37.20
2023-02-06T03:12:37.597Z,35.40
2023-02-06T03:13:37.534Z,35.00
2023-02-06T03:14:37.579Z,35.30
2023-02-06T03:15:37.847Z,30.70
2023-02-06T03:16:37.540Z,34.60
2023-02-06T03:17:37.516Z,31.70
2023-02-06T03:18:37.498Z,31.30
2023-02-06T03:19:37.522Z,30.50
2023-02-06T03:20:37.492Z,36.20
2023-02-06T03:21:37.469Z,32.50
2023-02-06T03:22:37.483Z,39.70
2023-02-06T03:23:37.710Z,32.10
2023-02-06T03:24:37.428Z,27.20
2023-02-06T03:25:38.226Z,30.30
2023-02-06T03:26:37.420Z,40.90
2023-02-06T03:27:37.420Z,32.50
2023-02-06T03:28:37.402Z,28.40
2023-02-06T03:29:37.440Z,38.50
2023-02-06T03:30:37.380Z,37.10
2023-02-06T03:31:37.453Z,30.30
2023-02-06T03:32:37.360Z,32.60
2023-02-06T03:33:37.350Z,29.90
2023-02-06T03:34:37.399Z,33.90
2023-02-06T03:35:37.618Z,32.30
2023-02-06T03:36:37.362Z,35.80
2023-02-06T03:37:37.298Z,34.00
2023-02-06T03:38:37.290Z,30.80
2023-02-06T03:39:37.326Z,34.60
2023-02-06T03:40:37.283Z,33.80
2023-02-06T03:41:37.305Z,31.80
2023-02-06T03:42:37.293Z,30.10
2023-02-06T03:43:37.257Z,29.60
2023-02-06T03:44:37.240Z,42.30
2023-02-06T03:45:37.591Z,35.80
2023-02-06T03:46:37.230Z,36.80
2023-02-06T03:47:37.228Z,32.80
2023-02-06T03:48:37.221Z,30.90
2023-02-06T03:49:37.199Z,36.40
2023-02-06T03:50:37.202Z,32.60
2023-02-06T03:51:37.183Z,31.30
2023-02-06T03:52:37.156Z,41.60
2023-02-06T03:53:37.176Z,31.90
2023-02-06T03:54:37.142Z,36.20
2023-02-06T03:55:37.552Z,34.70
2023-02-06T03:56:37.157Z,24.90
2023-02-06T03:57:38.375Z,28.60
2023-02-06T03:58:37.122Z,29.50
2023-02-06T03:59:37.195Z,31.40
2023-02-06T04:00:37.117Z,27.20
2023-02-06T04:01:37.132Z,32.20
2023-02-06T04:02:37.155Z,34.00
2023-02-06T04:03:37.066Z,35.10
2023-02-06T04:04:37.043Z,25.50
2023-02-06T04:05:37.487Z,30.10
2023-02-06T04:06:37.038Z,32.70
2023-02-06T04:07:37.111Z,31.20
2023-02-06T04:08:37.017Z,32.10
2023-02-06T04:09:37.065Z,28.60
2023-02-06T04:10:36.994Z,28.50
2023-02-06T04:11:37.002Z,34.60
2023-02-06T04:12:36.980Z,31.00
2023-02-06T04:13:36.976Z,31.20
2023-02-06T04:14:36.972Z,30.70
2023-02-06T04:15:37.288Z,34.10
2023-02-06T04:16:36.994Z,38.00
2023-02-06T04:17:53.472Z,38.50
2023-02-06T04:18:36.968Z,34.50
2023-02-06T04:19:36.986Z,25.10
2023-02-06T04:20:36.908Z,30.70
2023-02-06T04:21:36.921Z,38.30
2023-02-06T04:22:36.913Z,39.70
2023-02-06T04:23:36.863Z,43.00
2023-02-06T04:24:36.898Z,31.10
2023-02-06T04:25:37.189Z,45.90
2023-02-06T04:26:36.834Z,34.90
2023-02-06T04:27:36.850Z,38.70
2023-02-06T04:28:36.815Z,33.10
2023-02-06T04:29:36.808Z,27.50
2023-02-06T04:30:36.862Z,32.10
2023-02-06T04:31:36.897Z,32.70
2023-02-06T04:32:36.824Z,35.40
2023-02-06T04:33:36.781Z,26.70
2023-02-06T04:34:36.756Z,33.40
2023-02-06T04:35:37.064Z,30.90
2023-02-06T04:36:36.749Z,30.30
2023-02-06T04:37:36.752Z,31.70
2023-02-06T04:38:36.726Z,36.30
2023-02-06T04:39:36.711Z,38.70
2023-02-06T04:40:36.704Z,44.60
2023-02-06T04:41:36.727Z,48.30
2023-02-06T04:42:36.692Z,48.50
2023-02-06T04:43:36.666Z,46.80
2023-02-06T04:44:36.694Z,43.40
2023-02-06T04:45:36.931Z,49.90
2023-02-06T04:46:36.647Z,52.90
2023-02-06T04:47:36.620Z,50.10
2023-02-06T04:48:36.636Z,54.40
2023-02-06T04:49:36.609Z,48.30
2023-02-06T04:50:36.602Z,40.00
2023-02-06T04:51:36.597Z,43.00
2023-02-06T04:52:36.589Z,38.30
2023-02-06T04:53:36.587Z,43.90
2023-02-06T04:54:36.571Z,54.30
2023-02-06T04:55:36.925Z,60.00
2023-02-06T04:56:36.555Z,48.00
2023-02-06T04:57:36.532Z,53.90
2023-02-06T04:58:36.543Z,43.20
2023-02-06T04:59:36.514Z,47.90
2023-02-06T05:00:38.668Z,48.70
2023-02-06T05:01:36.551Z,52.20
2023-02-06T05:02:36.558Z,52.70
2023-02-06T05:03:36.488Z,58.40
2023-02-06T05:04:36.481Z,77.50
2023-02-06T05:05:36.655Z,84.50
2023-02-06T05:06:36.485Z,76.30
2023-02-06T05:07:36.725Z,83.60
2023-02-06T05:08:36.431Z,103.10
2023-02-06T05:09:36.465Z,91.70
2023-02-06T05:10:36.402Z,117.40
2023-02-06T05:11:36.391Z,127.30
2023-02-06T05:12:36.390Z,93.50
2023-02-06T05:13:36.377Z,90.20
2023-02-06T05:14:36.353Z,89.30
2023-02-06T05:15:36.814Z,86.80
2023-02-06T05:16:36.359Z,176.20
2023-02-06T05:17:37.217Z,116.00
2023-02-06T05:18:36.362Z,133.10
2023-02-06T05:19:36.330Z,248.50
2023-02-06T05:20:36.301Z,246.30
2023-02-06T05:21:36.311Z,180.70
2023-02-06T05:22:36.312Z,245.50
2023-02-06T05:23:36.342Z,212.30
2023-02-06T05:24:36.289Z,403.80
2023-02-06T05:25:36.630Z,378.70
2023-02-06T05:26:36.240Z,402.80
2023-02-06T05:27:36.248Z,310.70
2023-02-06T05:28:36.241Z,351.00
2023-02-06T05:29:36.220Z,423.50
2023-02-06T05:30:36.245Z,321.30
2023-02-06T05:31:36.426Z,348.50
2023-02-06T05:32:36.231Z,292.20
2023-02-06T05:33:36.289Z,253.90
2023-02-06T05:34:36.181Z,431.60
2023-02-06T05:35:36.473Z,342.80
2023-02-06T05:36:36.150Z,276.30
2023-02-06T05:37:36.184Z,343.20
2023-02-06T05:38:36.136Z,443.50
2023-02-06T05:39:36.110Z,461.70
2023-02-06T05:40:36.162Z,206.60
2023-02-06T05:41:36.122Z,235.20
2023-02-06T05:42:36.108Z,164.50
2023-02-06T05:43:36.069Z,268.80
2023-02-06T05:44:36.068Z,360.60
2023-02-06T05:45:36.289Z,257.40
2023-02-06T05:46:36.088Z,199.20
2023-02-06T05:47:36.068Z,129.10
2023-02-06T05:48:36.026Z,288.00
2023-02-06T05:49:36.028Z,94.20
2023-02-06T05:50:36.013Z,65.00
2023-02-06T05:51:36.008Z,180.30
2023-02-06T05:52:36.000Z,66.10
2023-02-06T05:53:35.989Z,292.00
2023-02-06T05:54:36.005Z,232.40
2023-02-06T05:55:36.299Z,98.30
2023-02-06T05:56:35.972Z,40.70
2023-02-06T05:57:35.950Z,42.30
2023-02-06T05:58:35.942Z,193.50
2023-02-06T05:59:35.963Z,255.60
2023-02-06T06:00:35.950Z,158.70
2023-02-06T06:01:35.904Z,199.50
2023-02-06T06:02:35.907Z,300.30
2023-02-06T06:03:35.972Z,182.90
2023-02-06T06:04:35.939Z,116.30
2023-02-06T06:05:36.227Z,80.10
2023-02-06T06:06:35.873Z,25.20
2023-02-06T06:07:35.838Z,34.10
2023-02-06T06:08:35.880Z,30.70
2023-02-06T06:09:35.850Z,65.90
2023-02-06T06:10:35.865Z,30.20
2023-02-06T06:11:35.856Z,261.90
2023-02-06T06:12:35.865Z,76.30
2023-02-06T06:13:35.816Z,119.90
2023-02-06T06:14:35.806Z,59.50
2023-02-06T06:15:36.037Z,77.40
2023-02-06T06:16:35.760Z,149.00
2023-02-06T06:17:35.795Z,57.10
2023-02-06T06:18:35.750Z,86.80
2023-02-06T06:19:35.725Z,115.30
2023-02-06T06:20:35.734Z,172.00
2023-02-06T06:21:35.738Z,29.50
2023-02-06T06:22:35.704Z,43.40
2023-02-06T06:23:35.704Z,26.30
2023-02-06T06:24:35.689Z,21.80
2023-02-06T06:25:36.001Z,24.90
2023-02-06T06:26:35.680Z,27.30
2023-02-06T06:27:35.675Z,27.80
2023-02-06T06:28:35.613Z,60.60
2023-02-06T06:29:35.648Z,26.50
2023-02-06T06:30:35.853Z,33.70
2023-02-06T06:31:35.591Z,31.50
2023-02-06T06:32:35.564Z,28.50
2023-02-06T06:33:35.569Z,32.20
2023-02-06T06:34:35.548Z,19.30
2023-02-06T06:35:35.841Z,21.70
2023-02-06T06:36:35.577Z,28.40
2023-02-06T06:37:35.533Z,33.50
2023-02-06T06:38:35.519Z,124.10
2023-02-06T06:39:35.547Z,88.90
2023-02-06T06:40:35.504Z,23.70
2023-02-06T06:41:35.460Z,23.40
2023-02-06T06:42:35.467Z,29.40
2023-02-06T06:43:35.467Z,26.70
2023-02-06T06:44:35.448Z,32.80
2023-02-06T06:45:35.831Z,28.50
2023-02-06T06:46:35.454Z,36.70
2023-02-06T06:47:35.665Z,33.60
2023-02-06T06:48:35.419Z,28.60
2023-02-06T06:49:35.388Z,39.70
2023-02-06T06:50:35.405Z,55.00
2023-02-06T06:51:35.363Z,69.70
2023-02-06T06:52:35.594Z,176.60
2023-02-06T06:53:35.478Z,112.50
2023-02-06T06:54:35.354Z,92.50
2023-02-06T06:55:36.642Z,118.60
2023-02-06T06:56:35.445Z,31.70
2023-02-06T06:57:35.853Z,68.00
2023-02-06T06:58:35.443Z,51.80
2023-02-06T06:59:35.347Z,65.80
2023-02-06T07:00:35.342Z,114.20
2023-02-06T07:01:35.281Z,77.70
2023-02-06T07:02:35.374Z,56.50
2023-02-06T07:03:35.352Z,88.80
2023-02-06T07:04:35.382Z,41.20
2023-02-06T07:05:35.606Z,39.80
2023-02-06T07:06:35.319Z,31.90
2023-02-06T07:07:35.371Z,51.00
2023-02-06T07:08:35.424Z,69.70
2023-02-06T07:09:35.243Z,31.10
2023-02-06T07:10:35.259Z,63.40
2023-02-06T07:11:35.159Z,94.10
2023-02-06T07:12:35.770Z,31.90
2023-02-06T07:13:35.298Z,49.20
2023-02-06T07:14:35.134Z,74.80
2023-02-06T07:15:35.549Z,53.20
2023-02-06T07:16:35.248Z,66.70
2023-02-06T07:17:35.117Z,69.40
2023-02-06T07:18:35.205Z,88.10
2023-02-06T07:19:35.170Z,78.50
2023-02-06T07:20:35.098Z,56.00
2023-02-06T07:21:35.056Z,63.40
2023-02-06T07:22:35.069Z,78.20
2023-02-06T07:23:35.159Z,66.20
2023-02-06T07:24:35.047Z,60.10
2023-02-06T07:25:35.498Z,31.10
2023-02-06T07:26:35.102Z,106.10
2023-02-06T07:27:35.032Z,114.80
2023-02-06T07:28:35.049Z,46.40
2023-02-06T07:29:35.197Z,35.60
2023-02-06T07:30:35.038Z,50.90
2023-02-06T07:31:35.013Z,39.20
2023-02-06T07:32:35.002Z,44.40
2023-02-06T07:33:34.973Z,43.90
2023-02-06T07:34:34.953Z,56.40
2023-02-06T07:35:35.188Z,103.90
2023-02-06T07:36:34.977Z,37.90
2023-02-06T07:37:34.925Z,38.00
2023-02-06T07:38:34.910Z,34.80
2023-02-06T07:39:34.909Z,30.40
2023-02-06T07:40:44.677Z,34.20
2023-02-06T07:41:34.879Z,36.60
2023-02-06T07:42:34.884Z,56.30
2023-02-06T07:43:34.909Z,38.90
2023-02-06T07:44:34.829Z,38.90
2023-02-06T07:45:35.349Z,42.70
2023-02-06T07:46:34.870Z,30.50
2023-02-06T07:47:34.825Z,42.10
2023-02-06T07:48:34.802Z,26.00
2023-02-06T07:49:34.793Z,28.30
2023-02-06T07:50:34.817Z,34.40
2023-02-06T07:51:34.779Z,58.60
2023-02-06T07:52:34.766Z,37.90
2023-02-06T07:53:34.820Z,43.90
2023-02-06T07:54:34.753Z,52.60
2023-02-06T07:55:35.095Z,39.30
2023-02-06T07:56:34.730Z,30.80
2023-02-06T07:57:34.704Z,43.60
2023-02-06T07:58:34.719Z,49.40
2023-02-06T07:59:34.695Z,70.60
2023-02-06T08:00:34.692Z,37.20
2023-02-06T08:01:34.731Z,44.40
2023-02-06T08:02:34.656Z,44.40
2023-02-06T08:03:34.683Z,39.80
2023-02-06T08:04:34.756Z,35.90
2023-02-06T08:05:34.828Z,64.00
2023-02-06T08:06:34.651Z,51.00
2023-02-06T08:07:34.636Z,61.20
2023-02-06T08:08:34.623Z,51.50
2023-02-06T08:09:34.613Z,72.70
2023-02-06T08:10:34.603Z,82.40
2023-02-06T08:11:34.604Z,56.90
2023-02-06T08:12:34.632Z,74.60
2023-02-06T08:13:34.556Z,94.70
2023-02-06T08:14:34.543Z,58.10
2023-02-06T08:15:34.982Z,58.20
2023-02-06T08:16:34.654Z,71.30
2023-02-06T08:17:34.527Z,61.10
2023-02-06T08:18:34.519Z,62.10
2023-02-06T08:19:34.531Z,69.00
2023-02-06T08:20:34.507Z,76.30
2023-02-06T08:21:34.482Z,48.80
2023-02-06T08:22:34.454Z,48.40
2023-02-06T08:23:34.475Z,51.10
2023-02-06T08:24:34.458Z,54.50
2023-02-06T08:25:34.963Z,40.70
2023-02-06T08:26:34.420Z,45.30
2023-02-06T08:27:34.448Z,51.60
2023-02-06T08:28:34.425Z,48.80
2023-02-06T08:29:34.416Z,51.80
2023-02-06T08:30:34.470Z,68.10
2023-02-06T08:31:34.563Z,84.60
2023-02-06T08:32:34.384Z,86.00
2023-02-06T08:33:34.367Z,90.40
2023-02-06T08:34:34.380Z,66.60
2023-02-06T08:35:34.725Z,80.20
2023-02-06T08:36:34.372Z,72.80
2023-02-06T08:37:34.315Z,53.30
2023-02-06T08:38:34.307Z,84.90
2023-02-06T08:39:34.304Z,82.60
2023-02-06T08:40:34.302Z,90.80
2023-02-06T08:41:34.299Z,90.30
2023-02-06T08:42:34.292Z,105.90
2023-02-06T08:43:34.257Z,83.60
2023-02-06T08:44:34.267Z,116.60
2023-02-06T08:45:34.467Z,111.20
2023-02-06T08:46:34.271Z,120.20
2023-02-06T08:47:34.229Z,99.60
2023-02-06T08:48:34.196Z,121.40
2023-02-06T08:49:34.193Z,105.50
2023-02-06T08:50:34.471Z,78.20
2023-02-06T08:51:34.235Z,93.00
2023-02-06T08:52:34.192Z,96.50
2023-02-06T08:53:34.283Z,79.20
2023-02-06T08:54:36.364Z,88.20
2023-02-06T08:55:34.147Z,63.40
2023-02-06T08:56:34.132Z,91.10
2023-02-06T08:57:34.149Z,86.80
2023-02-06T08:58:34.127Z,58.40
2023-02-06T08:59:34.115Z,93.20
2023-02-06T09:00:34.112Z,92.40
2023-02-06T09:01:34.147Z,74.10
2023-02-06T09:02:34.157Z,68.20
2023-02-06T09:03:34.052Z,80.00
2023-02-06T09:04:34.081Z,67.20
2023-02-06T09:05:34.410Z,84.50
2023-02-06T09:06:34.033Z,85.80
2023-02-06T09:07:34.026Z,99.60
2023-02-06T09:08:33.999Z,90.70
2023-02-06T09:09:34.027Z,91.80
2023-02-06T09:10:33.987Z,70.40
2023-02-06T09:11:34.084Z,102.40
2023-02-06T09:12:33.973Z,94.20
2023-02-06T09:13:33.977Z,88.10
2023-02-06T09:14:34.008Z,77.90
2023-02-06T09:15:34.292Z,83.20
2023-02-06T09:16:33.939Z,73.10
2023-02-06T09:17:33.932Z,71.00
2023-02-06T09:18:33.904Z,58.40
2023-02-06T09:19:33.936Z,81.40
2023-02-06T09:20:33.911Z,65.80
2023-02-06T09:21:33.886Z,56.10
2023-02-06T09:22:33.866Z,44.90
2023-02-06T09:23:33.855Z,56.90
2023-02-06T09:24:33.859Z,55.20
2023-02-06T09:25:34.077Z,63.40
2023-02-06T09:26:33.824Z,59.70
2023-02-06T09:27:33.830Z,79.60
2023-02-06T09:28:33.843Z,43.80
2023-02-06T09:29:33.791Z,43.30
2023-02-06T09:30:33.812Z,54.70
2023-02-06T09:31:33.813Z,51.10
2023-02-06T09:32:33.773Z,57.40
2023-02-06T09:33:33.755Z,40.40
2023-02-06T09:34:33.730Z,50.40
2023-02-06T09:35:33.834Z,43.80
2023-02-06T09:36:33.733Z,41.00
2023-02-06T09:37:33.699Z,51.30
2023-02-06T09:38:33.722Z,57.70
2023-02-06T09:39:33.713Z,72.10
2023-02-06T09:40:33.676Z,34.60
2023-02-06T09:41:33.674Z,39.00
2023-02-06T09:42:33.656Z,65.50
2023-02-06T09:43:33.676Z,50.10
2023-02-06T09:44:33.684Z,48.60
2023-02-06T09:45:33.684Z,37.50
2023-02-06T09:46:33.647Z,42.60
2023-02-06T09:47:33.621Z,44.50
2023-02-06T09:48:33.655Z,50.70
2023-02-06T09:49:33.612Z,38.40
2023-02-06T09:50:33.599Z,44.60
2023-02-06T09:51:33.562Z,47.70
2023-02-06T09:52:33.533Z,63.30
2023-02-06T09:53:33.558Z,41.20
2023-02-06T09:54:33.626Z,74.40
2023-02-06T09:55:33.647Z,51.70
2023-02-06T09:56:33.505Z,38.80
2023-02-06T09:57:33.517Z,33.70
2023-02-06T09:58:33.484Z,48.70
2023-02-06T09:59:33.505Z,46.60
2023-02-06T10:00:33.474Z,46.50
2023-02-06T10:01:33.500Z,54.20
2023-02-06T10:02:33.448Z,57.10
2023-02-06T10:03:33.468Z,49.40
2023-02-06T10:04:33.524Z,54.20
2023-02-06T10:05:33.920Z,56.00
2023-02-06T10:06:33.414Z,50.70
2023-02-06T10:07:33.438Z,41.50
2023-02-06T10:08:34.523Z,36.60
2023-02-06T10:09:33.383Z,51.40
2023-02-06T10:10:33.412Z,48.40
2023-02-06T10:11:33.404Z,52.50
2023-02-06T10:12:33.359Z,41.60
2023-02-06T10:13:33.354Z,45.40
2023-02-06T10:14:33.328Z,42.90
2023-02-06T10:15:33.475Z,41.80
2023-02-06T10:16:33.401Z,42.60
2023-02-06T10:17:33.342Z,37.90
2023-02-06T10:18:33.296Z,42.30
2023-02-06T10:19:33.293Z,40.80
2023-02-06T10:20:33.284Z,35.00
2023-02-06T10:21:33.295Z,38.10
2023-02-06T10:22:33.267Z,35.90
2023-02-06T10:23:33.241Z,32.80
2023-02-06T10:24:33.250Z,37.10
2023-02-06T10:25:33.238Z,31.80
2023-02-06T10:26:33.232Z,31.60
2023-02-06T10:27:33.216Z,34.90
2023-02-06T10:28:33.183Z,39.10
2023-02-06T10:29:33.203Z,31.90
2023-02-06T10:30:33.210Z,33.10
2023-02-06T10:31:33.261Z,30.10
2023-02-06T10:32:33.149Z,33.40
2023-02-06T10:33:33.183Z,31.70
2023-02-06T10:34:33.176Z,38.60
2023-02-06T10:35:33.143Z,40.00
2023-02-06T10:36:33.117Z,35.20
2023-02-06T10:37:33.136Z,36.70
2023-02-06T10:38:33.125Z,39.00
2023-02-06T10:39:33.123Z,32.70
2023-02-06T10:40:33.141Z,38.40
2023-02-06T10:41:33.098Z,40.10
2023-02-06T10:42:33.102Z,38.20
2023-02-06T10:43:33.117Z,38.70
2023-02-06T10:44:33.065Z,35.50
2023-02-06T10:45:33.053Z,37.10
2023-02-06T10:46:33.113Z,37.60
2023-02-06T10:47:33.021Z,39.20
2023-02-06T10:48:33.079Z,36.80
2023-02-06T10:49:33.002Z,35.90
2023-02-06T10:50:32.984Z,41.80
2023-02-06T10:51:33.128Z,42.50
2023-02-06T10:52:32.981Z,39.10
2023-02-06T10:53:32.985Z,40.70
2023-02-06T10:54:32.967Z,40.80
2023-02-06T10:55:32.933Z,35.00
2023-02-06T10:56:32.917Z,41.20
2023-02-06T10:57:32.991Z,35.10
2023-02-06T10:58:32.917Z,36.00
2023-02-06T10:59:32.905Z,37.70
2023-02-06T11:00:32.927Z,32.80
2023-02-06T11:01:32.925Z,34.20
2023-02-06T11:02:32.958Z,31.90
2023-02-06T11:03:32.887Z,28.00
2023-02-06T11:04:32.828Z,29.60
2023-02-06T11:05:32.858Z,32.70
2023-02-06T11:06:32.822Z,30.60
2023-02-06T11:07:32.804Z,27.90
2023-02-06T11:08:32.813Z,26.10
2023-02-06T11:09:32.845Z,28.40
2023-02-06T11:10:32.794Z,28.50
2023-02-06T11:11:32.811Z,27.80
2023-02-06T11:12:32.742Z,28.60
2023-02-06T11:13:32.751Z,32.60
2023-02-06T11:14:32.746Z,28.20
2023-02-06T11:15:32.778Z,34.50
2023-02-06T11:16:32.812Z,32.20
2023-02-06T11:17:32.728Z,34.90
2023-02-06T11:18:32.690Z,31.80
2023-02-06T11:19:32.717Z,35.40
2023-02-06T11:20:32.836Z,34.30
2023-02-06T11:21:32.676Z,46.40
2023-02-06T11:22:38.908Z,44.40
2023-02-06T11:23:32.677Z,40.40
2023-02-06T11:24:32.683Z,41.20
2023-02-06T11:25:32.622Z,38.90
2023-02-06T11:26:32.667Z,50.50
2023-02-06T11:27:32.610Z,41.80
2023-02-06T11:28:32.612Z,44.40
2023-02-06T11:29:32.681Z,47.90
2023-02-06T11:30:32.706Z,42.80
2023-02-06T11:31:32.605Z,44.30
2023-02-06T11:32:32.546Z,42.30
2023-02-06T11:33:32.566Z,46.20
2023-02-06T11:34:32.529Z,34.50
2023-02-06T11:35:32.557Z,38.00
2023-02-06T11:36:32.513Z,39.90
2023-02-06T11:37:32.563Z,42.10
2023-02-06T11:38:32.513Z,44.00
2023-02-06T11:39:32.517Z,33.20
2023-02-06T11:40:32.510Z,33.10
2023-02-06T11:41:32.459Z,39.70
2023-02-06T11:42:32.486Z,40.00
2023-02-06T11:43:32.520Z,34.70
2023-02-06T11:44:32.451Z,40.10
2023-02-06T11:45:32.546Z,37.70
2023-02-06T11:46:32.468Z,40.10
2023-02-06T11:47:32.435Z,36.90
2023-02-06T11:48:32.420Z,36.60
2023-02-06T11:49:32.390Z,40.60
2023-02-06T11:50:32.406Z,36.20
2023-02-06T11:51:32.384Z,37.10
2023-02-06T11:52:32.390Z,37.60
2023-02-06T11:53:32.375Z,47.00
2023-02-06T11:54:32.337Z,45.70
2023-02-06T11:55:32.402Z,35.90
2023-02-06T11:56:32.340Z,41.50
2023-02-06T11:57:32.356Z,45.00
2023-02-06T11:58:32.308Z,41.30
2023-02-06T11:59:32.274Z,38.80
2023-02-06T12:00:32.285Z,35.90
2023-02-06T12:01:32.304Z,39.50
2023-02-06T12:02:32.346Z,43.30
2023-02-06T12:03:32.303Z,45.30
2023-02-06T12:04:32.266Z,44.40
2023-02-06T12:05:32.276Z,38.90
2023-02-06T12:06:32.258Z,42.30
2023-02-06T12:07:32.211Z,42.50
2023-02-06T12:08:32.198Z,36.70
2023-02-06T12:09:32.416Z,45.30
2023-02-06T12:10:32.190Z,36.80
2023-02-06T12:11:32.180Z,39.20
2023-02-06T12:12:32.161Z,41.10
2023-02-06T12:13:32.160Z,43.10
2023-02-06T12:14:32.155Z,43.40
2023-02-06T12:15:45.843Z,35.70
2023-02-06T12:16:32.169Z,40.90
2023-02-06T12:17:32.152Z,42.20
2023-02-06T12:18:32.098Z,44.10
2023-02-06T12:19:32.134Z,40.50
2023-02-06T12:20:32.070Z,40.70
2023-02-06T12:21:32.065Z,44.50
2023-02-06T12:22:32.132Z,34.10
2023-02-06T12:23:32.069Z,44.00
2023-02-06T12:24:32.066Z,37.00
2023-02-06T12:25:32.050Z,36.00
2023-02-06T12:26:32.011Z,40.80
2023-02-06T12:27:32.080Z,34.20
2023-02-06T12:28:32.046Z,34.70
2023-02-06T12:29:32.007Z,39.30
2023-02-06T12:30:31.979Z,39.00
2023-02-06T12:31:32.190Z,42.90
2023-02-06T12:32:32.050Z,32.30
2023-02-06T12:33:31.953Z,41.20
2023-02-06T12:34:31.946Z,40.70
2023-02-06T12:35:31.951Z,37.50
2023-02-06T12:36:31.947Z,29.30
2023-02-06T12:37:31.949Z,36.20
2023-02-06T12:38:31.909Z,39.80
2023-02-06T12:39:31.894Z,40.00
2023-02-06T12:40:31.904Z,38.20
2023-02-06T12:41:31.911Z,36.30
2023-02-06T12:42:31.855Z,29.30
2023-02-06T12:43:31.866Z,38.60
2023-02-06T12:44:31.823Z,37.90
2023-02-06T12:45:31.992Z,34.60
2023-02-06T12:46:31.881Z,36.90
2023-02-06T12:47:31.833Z,43.70
2023-02-06T12:48:31.803Z,38.80
2023-02-06T12:49:31.799Z,36.50
2023-02-06T12:50:31.823Z,50.00